createdAt,value
2019-05-23T00:00:49.063Z,7.87
2019-05-23T00:03:41.150Z,7.80
2019-05-23T00:06:28.932Z,7.30
2019-05-23T00:09:17.544Z,7.03
2019-05-23T00:14:32.819Z,6.80
2019-05-23T00:17:02.341Z,7.50
2019-05-23T00:19:32.860Z,6.78
2019-05-23T00:24:31.985Z,5.97
2019-05-23T00:27:02.479Z,6.87
2019-05-23T00:29:33.391Z,5.83
2019-05-23T00:32:20.550Z,6.47
2019-05-23T00:34:52.012Z,6.25
2019-05-23T00:37:23.169Z,5.45
2019-05-23T00:39:53.593Z,5.80
2019-05-23T00:42:22.957Z,5.83
2019-05-23T00:44:52.486Z,5.97
2019-05-23T00:47:22.529Z,5.05
2019-05-23T00:49:52.854Z,5.62
2019-05-23T00:52:22.225Z,6.15
2019-05-23T00:54:51.668Z,5.58
2019-05-23T00:57:22.023Z,6.42
2019-05-23T00:59:51.975Z,6.72
2019-05-23T01:02:21.332Z,6.05
2019-05-23T01:04:50.979Z,5.58
2019-05-23T01:07:21.117Z,5.87
2019-05-23T01:09:52.047Z,6.12
2019-05-23T01:12:22.502Z,5.95
2019-05-23T01:14:53.629Z,5.90
2019-05-23T01:17:23.006Z,5.87
2019-05-23T01:19:54.011Z,5.70
2019-05-23T01:22:24.014Z,6.42
2019-05-23T01:24:55.086Z,6.50
2019-05-23T01:27:25.234Z,6.65
2019-05-23T01:29:54.611Z,17.30
2019-05-23T01:32:25.643Z,15.15
2019-05-23T01:34:55.746Z,6.75
2019-05-23T01:37:25.110Z,6.87
2019-05-23T01:39:54.975Z,7.45
2019-05-23T01:42:24.420Z,11.28
2019-05-23T01:44:54.733Z,12.60
2019-05-23T01:47:24.155Z,8.58
2019-05-23T01:49:54.825Z,8.60
2019-05-23T01:52:24.667Z,7.92
2019-05-23T01:54:54.314Z,8.70
2019-05-23T01:57:24.936Z,8.65
2019-05-23T02:00:08.897Z,9.00
2019-05-23T02:02:29.371Z,9.63
2019-05-23T02:04:59.507Z,9.05
2019-05-23T02:07:29.398Z,9.28
2019-05-23T02:09:58.786Z,8.20
2019-05-23T02:12:28.743Z,8.38
2019-05-23T02:14:59.701Z,8.43
2019-05-23T02:17:29.751Z,8.43
2019-05-23T02:19:59.588Z,8.25
2019-05-23T02:22:29.012Z,8.30
2019-05-23T02:24:59.746Z,8.55
2019-05-23T02:27:29.777Z,8.13
2019-05-23T02:30:00.655Z,8.70
2019-05-23T02:32:31.076Z,8.95
2019-05-23T02:35:00.581Z,8.23
2019-05-23T02:37:50.027Z,8.67
2019-05-23T02:40:35.833Z,8.98
2019-05-23T02:43:09.692Z,8.83
2019-05-23T02:45:43.815Z,9.80
2019-05-23T02:48:15.311Z,9.80
2019-05-23T02:50:49.875Z,9.53
2019-05-23T02:53:19.351Z,9.68
2019-05-23T02:55:49.808Z,10.45
2019-05-23T03:00:55.715Z,10.00
2019-05-23T03:03:28.252Z,11.68
2019-05-23T03:05:59.312Z,11.45
2019-05-23T03:08:31.501Z,10.75
2019-05-23T03:11:13.355Z,9.83
2019-05-23T03:13:42.742Z,10.50
2019-05-23T03:16:15.536Z,9.65
2019-05-23T03:18:49.017Z,9.55
2019-05-23T03:21:19.834Z,10.00
2019-05-23T03:24:09.413Z,9.85
2019-05-23T03:26:42.053Z,8.95
2019-05-23T03:29:11.798Z,9.10
2019-05-23T03:31:42.831Z,10.72
2019-05-23T03:34:12.351Z,8.75
2019-05-23T03:36:42.205Z,8.48
2019-05-23T03:39:11.870Z,9.55
2019-05-23T03:41:41.413Z,8.60
2019-05-23T03:44:12.428Z,11.07
2019-05-23T03:46:43.434Z,12.78
2019-05-23T03:49:14.466Z,10.55
2019-05-23T03:51:45.164Z,10.00
2019-05-23T03:54:15.199Z,10.35
2019-05-23T03:56:44.635Z,10.00
2019-05-23T03:59:14.662Z,11.12
2019-05-23T04:01:48.357Z,12.70
2019-05-23T04:04:16.293Z,10.90
2019-05-23T04:06:45.827Z,9.88
2019-05-23T04:09:16.366Z,10.08
2019-05-23T04:14:14.432Z,9.05
2019-05-23T04:16:43.879Z,9.18
2019-05-23T04:19:13.530Z,9.75
2019-05-23T04:21:42.967Z,9.67
2019-05-23T04:24:12.343Z,9.08
2019-05-23T04:26:41.796Z,9.38
2019-05-23T04:29:11.227Z,8.88
2019-05-23T04:31:40.714Z,8.70
2019-05-23T04:34:22.828Z,8.65
2019-05-23T04:36:52.254Z,8.98
2019-05-23T04:39:34.682Z,9.18
2019-05-23T04:42:05.703Z,13.70
2019-05-23T04:44:35.256Z,10.72
2019-05-23T04:47:05.983Z,8.70
2019-05-23T04:49:39.115Z,25.55
2019-05-23T04:52:08.957Z,19.37
2019-05-23T04:54:40.378Z,17.80
2019-05-23T04:57:10.649Z,11.40
2019-05-23T04:59:59.765Z,7.62
2019-05-23T05:02:29.207Z,7.60
2019-05-23T05:04:58.637Z,9.80
2019-05-23T05:07:28.397Z,8.55
2019-05-23T05:09:58.757Z,8.65
2019-05-23T05:12:28.413Z,7.60
2019-05-23T05:14:57.777Z,6.90
2019-05-23T05:17:27.397Z,7.90
2019-05-23T05:19:56.772Z,7.57
2019-05-23T05:22:26.431Z,7.78
2019-05-23T05:24:55.782Z,7.77
2019-05-23T05:27:26.721Z,7.75
2019-05-23T05:29:56.095Z,6.95
2019-05-23T05:32:43.223Z,6.92
2019-05-23T05:34:58.111Z,7.45
2019-05-23T05:37:27.559Z,7.83
2019-05-23T05:39:56.911Z,6.87
2019-05-23T05:42:27.058Z,8.03
2019-05-23T05:44:56.452Z,8.10
2019-05-23T05:47:26.477Z,9.80
2019-05-23T05:49:55.905Z,10.23
2019-05-23T05:52:27.254Z,10.95
2019-05-23T05:54:56.705Z,11.20
2019-05-23T05:57:26.070Z,12.03
2019-05-23T05:59:55.522Z,13.08
2019-05-23T06:02:26.364Z,12.47
2019-05-23T06:04:55.869Z,13.25
2019-05-23T06:07:36.357Z,12.78
2019-05-23T06:10:08.118Z,12.80
2019-05-23T06:12:37.984Z,12.25
2019-05-23T06:15:07.819Z,13.10
2019-05-23T06:17:37.262Z,14.10
2019-05-23T06:20:07.572Z,14.45
2019-05-23T06:22:37.374Z,12.98
2019-05-23T06:25:08.976Z,14.00
2019-05-23T06:27:38.505Z,13.80
2019-05-23T06:30:10.636Z,13.28
2019-05-23T06:32:40.185Z,13.28
2019-05-23T06:35:09.719Z,14.28
2019-05-23T06:37:39.875Z,13.50
2019-05-23T06:40:09.539Z,13.20
2019-05-23T06:42:38.930Z,11.55
2019-05-23T06:45:10.562Z,11.53
2019-05-23T06:47:39.991Z,11.25
2019-05-23T06:50:15.873Z,12.88
2019-05-23T06:52:45.352Z,10.60
2019-05-23T06:55:14.684Z,11.03
2019-05-23T06:57:44.085Z,10.18
2019-05-23T07:00:15.250Z,10.72
2019-05-23T07:02:45.226Z,10.68
2019-05-23T07:05:15.653Z,10.43
2019-05-23T07:10:13.633Z,9.68
2019-05-23T07:12:43.085Z,10.90
2019-05-23T07:15:12.624Z,11.10
2019-05-23T07:17:42.378Z,11.20
2019-05-23T07:20:12.306Z,11.53
2019-05-23T07:22:41.832Z,11.48
2019-05-23T07:25:11.771Z,10.68
2019-05-23T07:27:41.175Z,10.93
2019-05-23T07:30:26.115Z,10.85
2019-05-23T07:32:55.767Z,10.93
2019-05-23T07:35:26.274Z,10.70
2019-05-23T07:40:24.830Z,11.75
2019-05-23T07:42:54.851Z,11.28
2019-05-23T07:45:28.702Z,11.00
2019-05-23T07:47:58.100Z,11.97
2019-05-23T07:50:27.435Z,10.53
2019-05-23T07:52:57.563Z,11.78
2019-05-23T07:55:31.258Z,11.50
2019-05-23T07:58:00.785Z,12.05
2019-05-23T08:00:34.882Z,14.23
2019-05-23T08:03:04.937Z,11.28
2019-05-23T08:05:34.557Z,11.75
2019-05-23T08:08:04.804Z,10.57
2019-05-23T08:10:34.782Z,11.83
2019-05-23T08:13:04.455Z,38.45
2019-05-23T08:15:33.920Z,11.63
2019-05-23T08:18:03.978Z,15.13
2019-05-23T08:20:33.711Z,16.62
2019-05-23T08:23:03.105Z,11.80
2019-05-23T08:28:02.715Z,13.98
2019-05-23T08:30:32.228Z,11.68
2019-05-23T08:33:01.969Z,12.18
2019-05-23T08:35:31.330Z,12.53
2019-05-23T08:38:01.178Z,12.43
2019-05-23T08:40:30.810Z,13.03
2019-05-23T08:43:19.720Z,11.87
2019-05-23T08:45:49.233Z,13.03
2019-05-23T08:48:18.661Z,13.72
2019-05-23T08:50:51.238Z,13.65
2019-05-23T08:53:19.121Z,14.40
2019-05-23T08:55:48.751Z,15.85
2019-05-23T08:58:18.170Z,14.77
2019-05-23T09:00:48.533Z,15.25
2019-05-23T09:03:18.996Z,16.93
2019-05-23T09:05:49.860Z,15.90
2019-05-23T09:08:20.115Z,24.65
2019-05-23T09:10:51.317Z,19.17
2019-05-23T09:13:20.769Z,15.60
2019-05-23T09:15:52.760Z,18.60
2019-05-23T09:18:25.805Z,15.98
2019-05-23T09:20:55.190Z,16.77
2019-05-23T09:23:26.728Z,15.23
2019-05-23T09:25:56.162Z,17.07
2019-05-23T09:28:25.720Z,15.93
2019-05-23T09:30:55.085Z,17.12
2019-05-23T09:33:24.474Z,17.37
2019-05-23T09:35:53.831Z,15.88
2019-05-23T09:38:23.600Z,17.48
2019-05-23T09:40:52.984Z,17.40
2019-05-23T09:43:22.791Z,15.03
2019-05-23T09:45:53.796Z,17.85
2019-05-23T09:48:24.841Z,16.00
2019-05-23T09:50:54.276Z,15.78
2019-05-23T09:53:23.897Z,16.32
2019-05-23T09:55:55.797Z,16.50
2019-05-23T09:58:24.713Z,16.55
2019-05-23T10:00:54.170Z,15.30
2019-05-23T10:03:23.915Z,14.70
2019-05-23T10:05:53.271Z,15.45
2019-05-23T10:08:22.882Z,14.07
2019-05-23T10:10:52.444Z,14.83
2019-05-23T10:13:38.339Z,14.78
2019-05-23T10:15:56.759Z,16.12
2019-05-23T10:18:26.180Z,13.35
2019-05-23T10:20:55.591Z,13.50
2019-05-23T10:23:24.971Z,14.30
2019-05-23T10:25:54.329Z,13.62
2019-05-23T10:28:23.741Z,14.03
2019-05-23T10:30:53.121Z,13.30
2019-05-23T10:33:22.475Z,12.28
2019-05-23T10:36:00.383Z,13.15
2019-05-23T10:38:22.866Z,12.85
2019-05-23T10:40:52.584Z,11.65
2019-05-23T10:43:23.130Z,13.10
2019-05-23T10:48:22.646Z,14.18
2019-05-23T10:50:52.425Z,12.03
2019-05-23T10:53:21.821Z,11.15
2019-05-23T10:55:51.288Z,12.82
2019-05-23T10:58:21.829Z,12.78
2019-05-23T11:03:20.297Z,12.35
2019-05-23T11:05:50.031Z,11.60
2019-05-23T11:08:20.454Z,11.12
2019-05-23T11:10:49.917Z,11.38
2019-05-23T11:13:20.428Z,11.57
2019-05-23T11:15:49.879Z,10.50
2019-05-23T11:18:19.261Z,9.65
2019-05-23T11:20:48.625Z,9.18
2019-05-23T11:23:19.665Z,9.50
2019-05-23T11:25:49.311Z,8.95
2019-05-23T11:28:18.676Z,9.27
2019-05-23T11:30:52.446Z,8.13
2019-05-23T11:33:21.971Z,9.78
2019-05-23T11:35:51.400Z,8.35
2019-05-23T11:38:21.221Z,7.75
2019-05-23T11:40:50.873Z,7.97
2019-05-23T11:43:22.094Z,8.10
2019-05-23T11:45:55.832Z,8.53
2019-05-23T11:48:25.751Z,9.00
2019-05-23T11:50:55.227Z,7.35
2019-05-23T11:53:25.049Z,8.25
2019-05-23T11:56:13.932Z,6.83
2019-05-23T11:58:43.325Z,6.75
2019-05-23T12:01:20.669Z,7.20
2019-05-23T12:03:47.922Z,7.42
2019-05-23T12:06:17.909Z,7.00
2019-05-23T12:08:48.945Z,6.10
2019-05-23T12:11:18.664Z,6.97
2019-05-23T12:13:48.026Z,7.00
2019-05-23T12:16:17.576Z,6.60
2019-05-23T12:18:47.001Z,6.83
2019-05-23T12:21:16.745Z,5.72
2019-05-23T12:23:46.118Z,6.58
2019-05-23T12:26:15.480Z,5.90
2019-05-23T12:28:44.886Z,6.03
2019-05-23T12:31:14.742Z,6.37
2019-05-23T12:33:44.113Z,5.95
2019-05-23T12:36:14.561Z,6.22
2019-05-23T12:41:14.190Z,6.85
2019-05-23T12:43:43.569Z,6.65
2019-05-23T12:46:13.017Z,6.50
2019-05-23T12:48:44.080Z,7.05
2019-05-23T12:51:17.691Z,5.87
2019-05-23T12:53:47.225Z,5.12
2019-05-23T12:56:16.598Z,7.50
2019-05-23T12:58:47.689Z,5.75
2019-05-23T13:01:18.705Z,6.83
2019-05-23T13:03:48.059Z,6.30
2019-05-23T13:06:17.439Z,5.37
2019-05-23T13:08:46.883Z,5.85
2019-05-23T13:11:16.330Z,4.55
2019-05-23T13:13:45.780Z,4.65
2019-05-23T13:16:15.125Z,5.15
2019-05-23T13:18:44.771Z,4.73
2019-05-23T13:21:14.280Z,4.80
2019-05-23T13:23:43.878Z,4.33
2019-05-23T13:26:14.587Z,6.05
2019-05-23T13:28:43.962Z,4.50
2019-05-23T13:31:13.341Z,7.30
2019-05-23T13:33:42.790Z,5.70
2019-05-23T13:36:12.236Z,13.53
2019-05-23T13:38:41.629Z,8.65
2019-05-23T13:41:10.993Z,9.08
2019-05-23T13:43:40.449Z,6.15
2019-05-23T13:46:09.815Z,5.25
2019-05-23T13:48:39.280Z,6.28
2019-05-23T13:51:08.666Z,8.78
2019-05-23T13:53:38.006Z,7.45
2019-05-23T13:56:07.647Z,7.87
2019-05-23T13:58:38.086Z,6.72
2019-05-23T14:01:10.200Z,4.85
2019-05-23T14:03:39.697Z,7.95
2019-05-23T14:06:09.509Z,4.92
2019-05-23T14:08:38.898Z,6.67
2019-05-23T14:11:08.619Z,6.72
2019-05-23T14:13:38.059Z,8.00
2019-05-23T14:16:07.492Z,5.83
2019-05-23T14:18:37.813Z,6.53
2019-05-23T14:21:07.275Z,7.35
2019-05-23T14:23:36.830Z,6.10
2019-05-23T14:26:19.957Z,7.42
2019-05-23T14:28:51.498Z,7.87
2019-05-23T14:31:21.137Z,7.17
2019-05-23T14:33:52.249Z,6.60
2019-05-23T14:36:23.376Z,4.97
2019-05-23T14:38:54.464Z,8.75
2019-05-23T14:41:25.253Z,6.90
2019-05-23T14:44:05.388Z,6.53
2019-05-23T14:46:39.715Z,5.45
2019-05-23T14:49:23.692Z,6.00
2019-05-23T14:51:56.730Z,4.55
2019-05-23T14:54:39.678Z,4.40
2019-05-23T14:57:09.048Z,3.83
2019-05-23T14:59:38.873Z,3.77
2019-05-23T15:02:09.907Z,3.77
2019-05-23T15:04:39.318Z,4.30
2019-05-23T15:07:09.008Z,3.80
2019-05-23T15:09:38.438Z,4.35
2019-05-23T15:12:08.068Z,3.92
2019-05-23T15:14:38.118Z,3.62
2019-05-23T15:17:07.861Z,3.62
2019-05-23T15:19:42.180Z,4.35
2019-05-23T15:22:08.539Z,3.70
2019-05-23T15:24:38.300Z,3.60
2019-05-23T15:27:08.208Z,4.45
2019-05-23T15:29:50.155Z,4.17
2019-05-23T15:32:20.251Z,3.90
2019-05-23T15:34:51.731Z,3.87
2019-05-23T15:37:23.930Z,4.40
2019-05-23T15:39:53.897Z,4.28
2019-05-23T15:42:23.930Z,5.00
2019-05-23T15:44:54.054Z,8.00
2019-05-23T15:47:25.923Z,6.28
2019-05-23T15:49:58.118Z,5.90
2019-05-23T15:52:47.522Z,8.18
2019-05-23T15:58:30.118Z,5.00
2019-05-23T16:01:04.873Z,5.72
2019-05-23T16:03:43.230Z,5.65
2019-05-23T16:06:17.727Z,8.23
2019-05-23T16:08:47.716Z,6.10
2019-05-23T16:11:17.768Z,5.33
2019-05-23T16:13:48.286Z,5.50
2019-05-23T16:16:18.108Z,4.83
2019-05-23T16:18:48.687Z,4.65
2019-05-23T16:21:19.010Z,4.58
2019-05-23T16:23:49.569Z,4.28
2019-05-23T16:26:19.074Z,5.30
2019-05-23T16:28:48.429Z,4.28
2019-05-23T16:31:18.034Z,4.35
2019-05-23T16:36:17.639Z,4.58
2019-05-23T16:38:51.001Z,4.80
2019-05-23T16:41:22.188Z,4.40
2019-05-23T16:43:51.696Z,5.33
2019-05-23T16:46:21.815Z,5.87
2019-05-23T16:48:51.414Z,4.72
2019-05-23T16:51:21.251Z,5.10
2019-05-23T16:53:52.779Z,4.60
2019-05-23T16:56:33.383Z,6.42
2019-05-23T16:59:23.678Z,7.37
2019-05-23T17:02:05.548Z,5.50
2019-05-23T17:04:47.267Z,4.25
2019-05-23T17:07:30.574Z,9.03
2019-05-23T17:10:09.014Z,6.28
2019-05-23T17:12:43.788Z,4.92
2019-05-23T17:15:31.454Z,4.87
2019-05-23T17:18:15.416Z,5.25
2019-05-23T17:20:55.619Z,5.03
2019-05-23T17:23:29.632Z,5.10
2019-05-23T17:26:17.461Z,5.30
2019-05-23T17:28:48.632Z,5.47
2019-05-23T17:31:25.679Z,5.25
2019-05-23T17:33:55.076Z,5.42
2019-05-23T17:36:24.691Z,5.42
2019-05-23T17:39:08.256Z,5.17
2019-05-23T17:41:37.849Z,5.10
2019-05-23T17:44:07.556Z,5.37
2019-05-23T17:46:37.073Z,5.33
2019-05-23T17:49:06.427Z,4.80
2019-05-23T17:51:35.810Z,5.22
2019-05-23T17:54:05.391Z,5.47
2019-05-23T17:56:34.794Z,6.00
2019-05-23T17:59:04.256Z,5.53
2019-05-23T18:01:33.687Z,6.33
2019-05-23T18:04:03.741Z,6.47
2019-05-23T18:06:33.516Z,6.58
2019-05-23T18:09:05.907Z,6.00
2019-05-23T18:11:36.263Z,6.97
2019-05-23T18:14:13.436Z,6.37
2019-05-23T18:16:43.093Z,6.35
2019-05-23T18:19:12.475Z,6.05
2019-05-23T18:21:42.217Z,5.90
2019-05-23T18:24:11.898Z,5.85
2019-05-23T18:26:41.339Z,6.30
2019-05-23T18:29:11.608Z,6.20
2019-05-23T18:31:42.846Z,5.62
2019-05-23T18:34:24.698Z,5.22
2019-05-23T18:36:56.073Z,5.95
2019-05-23T18:39:27.402Z,5.50
2019-05-23T18:41:56.959Z,6.28
2019-05-23T18:44:26.920Z,6.07
2019-05-23T18:49:37.746Z,6.05
2019-05-23T18:52:10.381Z,5.65
2019-05-23T18:54:40.157Z,5.83
2019-05-23T18:57:09.580Z,5.58
2019-05-23T19:02:09.430Z,5.17
2019-05-23T19:04:38.802Z,5.10
2019-05-23T19:07:09.803Z,5.08
2019-05-23T19:09:39.971Z,4.80
2019-05-23T19:12:10.578Z,5.47
2019-05-23T19:14:39.957Z,5.40
2019-05-23T19:17:09.339Z,5.60
2019-05-23T19:19:38.924Z,5.37
2019-05-23T19:22:08.402Z,5.37
2019-05-23T19:24:38.112Z,6.00
2019-05-23T19:27:09.201Z,5.70
2019-05-23T19:29:40.498Z,5.37
2019-05-23T19:32:11.122Z,5.17
2019-05-23T19:37:13.347Z,5.58
2019-05-23T19:39:43.627Z,5.55
2019-05-23T19:42:15.034Z,5.70
2019-05-23T19:45:05.772Z,5.33
2019-05-23T19:47:39.683Z,6.42
2019-05-23T19:50:09.394Z,6.35
2019-05-23T19:52:38.850Z,6.53
2019-05-23T19:57:38.823Z,6.92
2019-05-23T20:00:09.890Z,6.22
2019-05-23T20:02:42.057Z,5.95
2019-05-23T20:05:19.465Z,6.92
2019-05-23T20:07:49.194Z,6.87
2019-05-23T20:10:19.222Z,6.90
2019-05-23T20:12:49.850Z,6.90
2019-05-23T20:17:51.852Z,6.08
2019-05-23T20:20:20.212Z,6.28
2019-05-23T20:22:49.628Z,6.12
2019-05-23T20:25:22.545Z,6.22
2019-05-23T20:27:51.931Z,6.62
2019-05-23T20:30:43.316Z,6.08
2019-05-23T20:33:12.676Z,6.83
2019-05-23T20:35:42.085Z,8.43
2019-05-23T20:38:11.462Z,8.23
2019-05-23T20:40:40.897Z,8.05
2019-05-23T20:43:10.366Z,6.90
2019-05-23T20:45:39.913Z,8.13
2019-05-23T20:48:09.270Z,7.60
2019-05-23T20:50:38.720Z,8.60
2019-05-23T20:53:08.097Z,8.10
2019-05-23T20:55:37.531Z,9.18
2019-05-23T20:58:06.976Z,8.28
2019-05-23T21:00:44.045Z,7.53
2019-05-23T21:03:13.544Z,6.97
2019-05-23T21:05:42.909Z,6.80
2019-05-23T21:08:12.291Z,7.20
2019-05-23T21:10:46.548Z,6.55
2019-05-23T21:13:15.920Z,6.42
2019-05-23T21:15:45.409Z,6.90
2019-05-23T21:18:14.757Z,7.05
2019-05-23T21:20:44.133Z,6.53
2019-05-23T21:23:13.591Z,7.25
2019-05-23T21:25:48.362Z,7.33
2019-05-23T21:28:18.277Z,6.80
2019-05-23T21:30:47.706Z,7.80
2019-05-23T21:33:17.089Z,7.83
2019-05-23T21:35:46.641Z,8.15
2019-05-23T21:38:16.026Z,7.50
2019-05-23T21:40:45.476Z,7.87
2019-05-23T21:43:14.870Z,6.28
2019-05-23T21:45:44.319Z,7.08
2019-05-23T21:48:13.728Z,10.38
2019-05-23T21:50:43.074Z,6.92
2019-05-23T21:53:12.466Z,6.87
2019-05-23T21:55:42.487Z,8.50
2019-05-23T21:58:13.126Z,7.00
2019-05-23T22:03:42.801Z,6.80
2019-05-23T22:06:13.893Z,7.58
2019-05-23T22:08:44.237Z,6.65
2019-05-23T22:11:13.604Z,6.60
2019-05-23T22:13:42.933Z,6.87
2019-05-23T22:16:12.822Z,7.53
2019-05-23T22:18:42.209Z,7.15
2019-05-23T22:21:12.131Z,6.40
2019-05-23T22:23:41.484Z,6.28
2019-05-23T22:26:10.884Z,6.85
2019-05-23T22:28:40.406Z,7.07
2019-05-23T22:31:10.755Z,6.33
2019-05-23T22:33:44.733Z,7.12
2019-05-23T22:36:33.615Z,6.58
2019-05-23T22:39:05.021Z,7.12
2019-05-23T22:41:53.819Z,7.67
2019-05-23T22:44:23.202Z,7.10
2019-05-23T22:46:52.719Z,7.05
2019-05-23T22:49:22.100Z,7.40
2019-05-23T22:51:51.533Z,7.17
2019-05-23T22:54:20.856Z,7.10
2019-05-23T22:56:50.293Z,7.30
2019-05-23T22:59:19.679Z,6.85
2019-05-23T23:01:49.110Z,7.83
2019-05-23T23:04:18.557Z,6.80
2019-05-23T23:06:48.004Z,7.50
2019-05-23T23:11:47.037Z,7.58
2019-05-23T23:14:16.586Z,8.80
2019-05-23T23:16:46.290Z,8.40
2019-05-23T23:19:15.719Z,7.87
2019-05-23T23:21:45.061Z,8.10
2019-05-23T23:24:14.449Z,7.35
2019-05-23T23:26:43.836Z,8.05
2019-05-23T23:29:13.460Z,8.25
2019-05-23T23:31:42.833Z,9.30
2019-05-23T23:36:41.975Z,9.90
2019-05-23T23:39:11.385Z,8.85
2019-05-23T23:41:40.766Z,10.20
2019-05-23T23:44:11.783Z,10.65
2019-05-23T23:46:59.028Z,10.25
2019-05-23T23:49:46.577Z,12.75
2019-05-23T23:52:34.008Z,12.70
2019-05-23T23:55:22.782Z,11.28
2019-05-23T23:58:00.747Z,10.45
